Historique des mesures à Cassis (13260), France
Quotidien Résumé Janvier 21, 2018 Unités:  Métrique    US   Métrique/US
« Précédent (Jour)
Suivant (Jour) »
Quotidien Hebdomadaire Mensuel Annuel Période au choix
  Maximum: Minimum: Moyenne:
Température: TemperatureC °C 13.3 °C 14 °C
Point de rosée: DewpointC °C 2.4 °C 6.5 °C
Humidité: Humidity % 43 % 58 %
Vitesse du vent: 0 km/h 15.6 km/h 37.7 km/h
Rafales: 0 km/h - -
Vent:- - WNW
Pression: PressurehPa hPa 1005.0 hPa -
Précipitations: 0.0 mm    
Historical Graphs
 
 
Mesures pour : Janvier 21, 2018
Heure Temperature Point de rosée Pression Vent Vitesse du vent Rafales Humidité Pluie (par heure) Conditions
TemperatureC °C DewpointC °C PressurehPa hPa Calm     Humidity % HourlyPrecipMM mm SoftwareType W/m2
00:12 13.3 °C 9.9 °C 1006.3 hPa West 41.7 km/h 50.5 km/h 80 % 0.0 mm open2300-1.11 W/m2
01:12 13.4 °C 10.0 °C 1005.6 hPa West 50.5 km/h 51 km/h 80 % 0.0 mm open2300-1.11 W/m2
02:12 13.9 °C 10.1 °C 1005.3 hPa West 54.4 km/h 62.6 km/h 78 % 0.0 mm open2300-1.11 W/m2
03:12 13.9 °C 10.1 °C 1006.0 hPa NW 20.9 km/h 39.4 km/h 78 % 0.0 mm open2300-1.11 W/m2
04:12 13.9 °C 9.9 °C 1005.3 hPa WNW 37.5 km/h 61.3 km/h 77 % 0.0 mm open2300-1.11 W/m2
05:12 13.9 °C 9.3 °C 1005.3 hPa WNW 52.8 km/h 53.3 km/h 74 % 0.0 mm open2300-1.11 W/m2
06:12 14.4 °C 6.8 °C 1005.0 hPa NNW 16.9 km/h 34.8 km/h 60 % 0.0 mm open2300-1.11 W/m2
07:12 14.4 °C 5.7 °C 1005.3 hPa WNW 59.1 km/h 59.1 km/h 56 % 0.0 mm open2300-1.11 W/m2
08:12 13.9 °C 5.5 °C 1006.3 hPa NW 27.7 km/h 39.9 km/h 57 % 0.0 mm open2300-1.11 W/m2
10:12 14.4 °C 3.8 °C 1007.7 hPa WNW 31.9 km/h 31.9 km/h 49 % 0.0 mm open2300-1.11 W/m2
11:12 14.9 °C 2.4 °C 1008.4 hPa NW 51.5 km/h 54.4 km/h 43 % 0.0 mm open2300-1.11 W/m2
12:12 15.2 °C 3.3 °C 1009.4 hPa NNW 51 km/h 51 km/h 45 % 0.0 mm open2300-1.11 W/m2
13:12 15.5 °C 4.2 °C 1008.7 hPa WNW 49.7 km/h 49.7 km/h 47 % 0.0 mm open2300-1.11 W/m2
14:12 15.5 °C 4.5 °C 1009.0 hPa WNW 45.9 km/h 53.3 km/h 48 % 0.0 mm open2300-1.11 W/m2
15:12 15.5 °C 5.2 °C 1009.0 hPa WNW 37 km/h 51 km/h 50 % 0.0 mm open2300-1.11 W/m2
16:12 15.3 °C 5.2 °C 1009.4 hPa WNW 58.6 km/h 58.6 km/h 51 % 0.0 mm open2300-1.11 W/m2
17:12 14.9 °C 5.7 °C 1009.4 hPa NNW 44.1 km/h 44.1 km/h 54 % 0.0 mm open2300-1.11 W/m2
18:12 14.8 °C 6.3 °C 1010.0 hPa West 36.5 km/h 36.5 km/h 57 % 0.0 mm open2300-1.11 W/m2
19:12 15.2 °C 6.9 °C 1010.4 hPa NW 23.8 km/h 38.8 km/h 58 % 0.0 mm open2300-1.11 W/m2
20:12 15.1 °C 7.1 °C 1011.1 hPa NW 39.4 km/h 39.4 km/h 59 % 0.0 mm open2300-1.11 W/m2
21:12 15.3 °C 7.6 °C 1011.7 hPa NNE 38.3 km/h 38.3 km/h 60 % 0.0 mm open2300-1.11 W/m2
22:12 15.0 °C 7.5 °C 1012.1 hPa NNW 19.2 km/h 30.1 km/h 61 % 0.0 mm open2300-1.11 W/m2
23:12 15.1 °C 7.9 °C 1012.4 hPa NNW 15.6 km/h 47.3 km/h 62 % 0.0 mm open2300-1.11 W/m2
Observations météo à CASSIS
WU-History script by Weather Underground - 1 mb